sensor_id;sensor_type;location;lat;lon;timestamp;P1;durP1;ratioP1;P2;durP2;ratioP2
15689;SDS011;7945;48.816;11.506;2023-08-06T00:00:30;2.55;;;2.33;;
15689;SDS011;7945;48.816;11.506;2023-08-06T00:02:57;2.30;;;2.10;;
15689;SDS011;7945;48.816;11.506;2023-08-06T00:05:24;2.55;;;2.10;;
15689;SDS011;7945;48.816;11.506;2023-08-06T00:07:52;3.22;;;2.30;;
15689;SDS011;7945;48.816;11.506;2023-08-06T00:10:18;2.55;;;2.10;;
15689;SDS011;7945;48.816;11.506;2023-08-06T00:12:45;2.00;;;1.90;;
15689;SDS011;7945;48.816;11.506;2023-08-06T00:15:13;1.90;;;1.80;;
15689;SDS011;7945;48.816;11.506;2023-08-06T00:17:40;2.47;;;1.90;;
15689;SDS011;7945;48.816;11.506;2023-08-06T00:20:07;2.60;;;1.90;;
15689;SDS011;7945;48.816;11.506;2023-08-06T00:22:34;2.78;;;2.00;;
15689;SDS011;7945;48.816;11.506;2023-08-06T00:25:04;2.10;;;2.00;;
15689;SDS011;7945;48.816;11.506;2023-08-06T00:27:31;2.85;;;2.13;;
15689;SDS011;7945;48.816;11.506;2023-08-06T00:29:58;3.55;;;2.10;;
15689;SDS011;7945;48.816;11.506;2023-08-06T00:32:25;2.35;;;1.70;;
15689;SDS011;7945;48.816;11.506;2023-08-06T00:34:52;1.90;;;1.80;;
15689;SDS011;7945;48.816;11.506;2023-08-06T00:37:19;1.90;;;1.80;;
15689;SDS011;7945;48.816;11.506;2023-08-06T00:39:45;1.65;;;1.55;;
15689;SDS011;7945;48.816;11.506;2023-08-06T00:42:13;2.25;;;1.95;;
15689;SDS011;7945;48.816;11.506;2023-08-06T00:44:41;2.08;;;1.80;;
15689;SDS011;7945;48.816;11.506;2023-08-06T00:47:07;1.80;;;1.70;;
15689;SDS011;7945;48.816;11.506;2023-08-06T00:49:35;1.75;;;1.65;;
15689;SDS011;7945;48.816;11.506;2023-08-06T00:52:03;1.60;;;1.50;;
15689;SDS011;7945;48.816;11.506;2023-08-06T00:54:31;1.80;;;1.70;;
15689;SDS011;7945;48.816;11.506;2023-08-06T00:56:58;2.00;;;1.50;;
15689;SDS011;7945;48.816;11.506;2023-08-06T00:59:28;1.58;;;1.48;;
15689;SDS011;7945;48.816;11.506;2023-08-06T01:01:56;2.13;;;1.83;;
15689;SDS011;7945;48.816;11.506;2023-08-06T01:04:22;1.95;;;1.70;;
15689;SDS011;7945;48.816;11.506;2023-08-06T01:06:52;1.80;;;1.70;;
15689;SDS011;7945;48.816;11.506;2023-08-06T01:09:30;4.70;;;1.80;;
15689;SDS011;7945;48.816;11.506;2023-08-06T01:15:27;1.80;;;1.70;;
15689;SDS011;7945;48.816;11.506;2023-08-06T01:17:58;5.97;;;1.70;;
15689;SDS011;7945;48.816;11.506;2023-08-06T01:20:28;4.63;;;1.70;;
15689;SDS011;7945;48.816;11.506;2023-08-06T01:22:55;1.73;;;1.63;;
15689;SDS011;7945;48.816;11.506;2023-08-06T01:25:22;1.73;;;1.63;;
15689;SDS011;7945;48.816;11.506;2023-08-06T01:27:56;1.90;;;1.80;;
15689;SDS011;7945;48.816;11.506;2023-08-06T01:30:33;1.90;;;1.80;;
15689;SDS011;7945;48.816;11.506;2023-08-06T01:33:05;1.95;;;1.85;;
15689;SDS011;7945;48.816;11.506;2023-08-06T01:35:42;2.05;;;1.90;;
15689;SDS011;7945;48.816;11.506;2023-08-06T01:38:09;2.10;;;1.80;;
15689;SDS011;7945;48.816;11.506;2023-08-06T01:40:36;1.88;;;1.70;;
15689;SDS011;7945;48.816;11.506;2023-08-06T01:43:02;2.17;;;1.95;;
15689;SDS011;7945;48.816;11.506;2023-08-06T01:45:28;2.63;;;2.22;;
15689;SDS011;7945;48.816;11.506;2023-08-06T01:47:55;2.00;;;1.90;;
15689;SDS011;7945;48.816;11.506;2023-08-06T01:50:22;2.13;;;1.90;;
15689;SDS011;7945;48.816;11.506;2023-08-06T01:52:50;2.25;;;1.88;;
15689;SDS011;7945;48.816;11.506;2023-08-06T01:55:16;3.25;;;2.25;;
15689;SDS011;7945;48.816;11.506;2023-08-06T01:57:43;2.53;;;2.33;;
15689;SDS011;7945;48.816;11.506;2023-08-06T02:00:10;2.67;;;2.47;;
15689;SDS011;7945;48.816;11.506;2023-08-06T02:02:38;2.55;;;2.33;;
15689;SDS011;7945;48.816;11.506;2023-08-06T02:05:06;2.65;;;2.10;;
15689;SDS011;7945;48.816;11.506;2023-08-06T02:07:33;2.90;;;2.30;;
15689;SDS011;7945;48.816;11.506;2023-08-06T02:10:01;3.25;;;2.40;;
15689;SDS011;7945;48.816;11.506;2023-08-06T02:12:27;2.88;;;2.67;;
15689;SDS011;7945;48.816;11.506;2023-08-06T02:14:54;2.67;;;2.47;;
15689;SDS011;7945;48.816;11.506;2023-08-06T02:17:21;2.63;;;2.42;;
15689;SDS011;7945;48.816;11.506;2023-08-06T02:19:47;2.63;;;2.42;;
15689;SDS011;7945;48.816;11.506;2023-08-06T02:22:14;2.72;;;2.47;;
15689;SDS011;7945;48.816;11.506;2023-08-06T02:24:41;3.13;;;2.47;;
15689;SDS011;7945;48.816;11.506;2023-08-06T02:27:09;3.85;;;2.60;;
15689;SDS011;7945;48.816;11.506;2023-08-06T02:29:36;3.38;;;2.40;;
15689;SDS011;7945;48.816;11.506;2023-08-06T02:32:03;2.70;;;2.47;;
15689;SDS011;7945;48.816;11.506;2023-08-06T02:34:30;2.90;;;2.45;;
15689;SDS011;7945;48.816;11.506;2023-08-06T02:36:57;2.80;;;2.60;;
15689;SDS011;7945;48.816;11.506;2023-08-06T02:39:23;2.85;;;2.22;;
15689;SDS011;7945;48.816;11.506;2023-08-06T02:41:50;2.80;;;2.50;;
15689;SDS011;7945;48.816;11.506;2023-08-06T02:44:18;3.00;;;2.42;;
15689;SDS011;7945;48.816;11.506;2023-08-06T02:46:45;2.70;;;2.50;;
15689;SDS011;7945;48.816;11.506;2023-08-06T02:49:12;2.53;;;2.20;;
15689;SDS011;7945;48.816;11.506;2023-08-06T02:51:38;2.60;;;2.40;;
15689;SDS011;7945;48.816;11.506;2023-08-06T02:54:05;2.67;;;2.40;;
15689;SDS011;7945;48.816;11.506;2023-08-06T02:56:32;3.25;;;2.50;;
15689;SDS011;7945;48.816;11.506;2023-08-06T02:58:59;2.22;;;2.00;;
15689;SDS011;7945;48.816;11.506;2023-08-06T03:01:27;2.92;;;2.17;;
15689;SDS011;7945;48.816;11.506;2023-08-06T03:03:54;3.22;;;2.50;;
15689;SDS011;7945;48.816;11.506;2023-08-06T03:06:21;2.42;;;2.22;;
15689;SDS011;7945;48.816;11.506;2023-08-06T03:08:47;3.15;;;2.55;;
15689;SDS011;7945;48.816;11.506;2023-08-06T03:11:14;3.22;;;2.72;;
15689;SDS011;7945;48.816;11.506;2023-08-06T03:13:41;3.78;;;3.00;;
15689;SDS011;7945;48.816;11.506;2023-08-06T03:16:08;3.33;;;3.03;;
15689;SDS011;7945;48.816;11.506;2023-08-06T03:18:36;2.70;;;2.47;;
15689;SDS011;7945;48.816;11.506;2023-08-06T03:21:03;3.28;;;2.50;;
15689;SDS011;7945;48.816;11.506;2023-08-06T03:23:29;2.50;;;2.30;;
15689;SDS011;7945;48.816;11.506;2023-08-06T03:25:56;2.60;;;2.40;;
15689;SDS011;7945;48.816;11.506;2023-08-06T03:28:27;2.55;;;2.28;;
15689;SDS011;7945;48.816;11.506;2023-08-06T03:30:58;2.75;;;2.35;;
15689;SDS011;7945;48.816;11.506;2023-08-06T03:33:26;3.00;;;2.50;;
15689;SDS011;7945;48.816;11.506;2023-08-06T03:35:54;3.15;;;2.67;;
15689;SDS011;7945;48.816;11.506;2023-08-06T03:38:21;2.42;;;2.22;;
15689;SDS011;7945;48.816;11.506;2023-08-06T03:40:48;2.60;;;2.40;;
15689;SDS011;7945;48.816;11.506;2023-08-06T03:43:14;3.22;;;2.47;;
15689;SDS011;7945;48.816;11.506;2023-08-06T03:45:41;2.95;;;2.65;;
15689;SDS011;7945;48.816;11.506;2023-08-06T03:48:08;3.00;;;2.45;;
15689;SDS011;7945;48.816;11.506;2023-08-06T03:50:35;2.58;;;2.30;;
15689;SDS011;7945;48.816;11.506;2023-08-06T03:53:03;2.80;;;2.60;;
15689;SDS011;7945;48.816;11.506;2023-08-06T03:55:30;3.35;;;2.55;;
15689;SDS011;7945;48.816;11.506;2023-08-06T03:57:56;2.65;;;2.45;;
15689;SDS011;7945;48.816;11.506;2023-08-06T04:00:23;3.08;;;2.65;;
15689;SDS011;7945;48.816;11.506;2023-08-06T04:02:50;2.72;;;2.45;;
15689;SDS011;7945;48.816;11.506;2023-08-06T04:05:17;3.17;;;2.58;;
15689;SDS011;7945;48.816;11.506;2023-08-06T04:07:44;3.03;;;2.63;;
15689;SDS011;7945;48.816;11.506;2023-08-06T04:10:12;3.20;;;2.80;;
15689;SDS011;7945;48.816;11.506;2023-08-06T04:12:38;2.88;;;2.58;;
15689;SDS011;7945;48.816;11.506;2023-08-06T04:15:06;2.72;;;2.53;;
15689;SDS011;7945;48.816;11.506;2023-08-06T04:17:33;4.63;;;2.67;;
15689;SDS011;7945;48.816;11.506;2023-08-06T04:20:00;2.78;;;2.53;;
15689;SDS011;7945;48.816;11.506;2023-08-06T04:22:27;2.75;;;2.55;;
15689;SDS011;7945;48.816;11.506;2023-08-06T04:24:54;3.72;;;2.80;;
15689;SDS011;7945;48.816;11.506;2023-08-06T04:27:22;2.88;;;2.60;;
15689;SDS011;7945;48.816;11.506;2023-08-06T04:29:48;3.35;;;3.05;;
15689;SDS011;7945;48.816;11.506;2023-08-06T04:32:15;3.88;;;2.70;;
15689;SDS011;7945;48.816;11.506;2023-08-06T04:34:42;3.00;;;2.58;;
15689;SDS011;7945;48.816;11.506;2023-08-06T04:37:09;4.28;;;2.90;;
15689;SDS011;7945;48.816;11.506;2023-08-06T04:39:36;3.22;;;2.95;;
15689;SDS011;7945;48.816;11.506;2023-08-06T04:42:03;3.42;;;2.75;;
15689;SDS011;7945;48.816;11.506;2023-08-06T04:44:31;3.20;;;2.90;;
15689;SDS011;7945;48.816;11.506;2023-08-06T04:46:58;3.15;;;2.85;;
15689;SDS011;7945;48.816;11.506;2023-08-06T04:49:25;3.72;;;3.05;;
15689;SDS011;7945;48.816;11.506;2023-08-06T04:51:52;3.70;;;3.22;;
15689;SDS011;7945;48.816;11.506;2023-08-06T04:54:18;3.75;;;3.05;;
15689;SDS011;7945;48.816;11.506;2023-08-06T04:56:45;4.72;;;3.47;;
15689;SDS011;7945;48.816;11.506;2023-08-06T04:59:12;4.10;;;3.58;;
15689;SDS011;7945;48.816;11.506;2023-08-06T05:01:40;4.25;;;3.20;;
15689;SDS011;7945;48.816;11.506;2023-08-06T05:04:07;3.60;;;3.30;;
15689;SDS011;7945;48.816;11.506;2023-08-06T05:06:33;3.78;;;3.47;;
15689;SDS011;7945;48.816;11.506;2023-08-06T05:09:00;4.40;;;4.00;;
15689;SDS011;7945;48.816;11.506;2023-08-06T05:11:27;4.15;;;3.75;;
15689;SDS011;7945;48.816;11.506;2023-08-06T05:13:53;4.40;;;3.88;;
15689;SDS011;7945;48.816;11.506;2023-08-06T05:16:20;4.22;;;3.75;;
15689;SDS011;7945;48.816;11.506;2023-08-06T05:18:48;6.25;;;4.45;;
15689;SDS011;7945;48.816;11.506;2023-08-06T05:21:15;4.88;;;4.07;;
15689;SDS011;7945;48.816;11.506;2023-08-06T05:23:42;4.70;;;4.30;;
15689;SDS011;7945;48.816;11.506;2023-08-06T05:26:09;5.25;;;4.22;;
15689;SDS011;7945;48.816;11.506;2023-08-06T05:28:35;4.68;;;3.83;;
15689;SDS011;7945;48.816;11.506;2023-08-06T05:31:03;3.67;;;3.35;;
15689;SDS011;7945;48.816;11.506;2023-08-06T05:33:30;3.95;;;3.50;;
15689;SDS011;7945;48.816;11.506;2023-08-06T05:35:58;3.97;;;3.40;;
15689;SDS011;7945;48.816;11.506;2023-08-06T05:38:24;5.68;;;3.75;;
15689;SDS011;7945;48.816;11.506;2023-08-06T05:40:51;4.10;;;3.70;;
15689;SDS011;7945;48.816;11.506;2023-08-06T05:43:18;4.18;;;3.63;;
15689;SDS011;7945;48.816;11.506;2023-08-06T05:45:45;4.13;;;3.60;;
15689;SDS011;7945;48.816;11.506;2023-08-06T05:48:12;4.60;;;3.40;;
15689;SDS011;7945;48.816;11.506;2023-08-06T05:50:39;5.18;;;3.55;;
15689;SDS011;7945;48.816;11.506;2023-08-06T05:53:07;3.83;;;3.42;;
15689;SDS011;7945;48.816;11.506;2023-08-06T05:55:34;6.13;;;3.25;;
15689;SDS011;7945;48.816;11.506;2023-08-06T05:58:00;4.65;;;3.50;;
15689;SDS011;7945;48.816;11.506;2023-08-06T06:00:27;4.22;;;3.10;;
15689;SDS011;7945;48.816;11.506;2023-08-06T06:02:54;4.47;;;3.30;;
15689;SDS011;7945;48.816;11.506;2023-08-06T06:05:21;3.92;;;3.17;;
15689;SDS011;7945;48.816;11.506;2023-08-06T06:07:47;3.40;;;3.05;;
15689;SDS011;7945;48.816;11.506;2023-08-06T06:10:16;4.10;;;3.60;;
15689;SDS011;7945;48.816;11.506;2023-08-06T06:15:39;3.80;;;3.40;;
15689;SDS011;7945;48.816;11.506;2023-08-06T06:18:05;3.72;;;3.00;;
15689;SDS011;7945;48.816;11.506;2023-08-06T06:20:32;3.25;;;2.95;;
15689;SDS011;7945;48.816;11.506;2023-08-06T06:22:59;3.35;;;3.05;;
15689;SDS011;7945;48.816;11.506;2023-08-06T06:25:26;2.95;;;2.67;;
15689;SDS011;7945;48.816;11.506;2023-08-06T06:27:52;3.83;;;2.72;;
15689;SDS011;7945;48.816;11.506;2023-08-06T06:30:19;3.80;;;2.95;;
15689;SDS011;7945;48.816;11.506;2023-08-06T06:32:48;4.10;;;2.70;;
15689;SDS011;7945;48.816;11.506;2023-08-06T06:35:14;3.67;;;2.60;;
15689;SDS011;7945;48.816;11.506;2023-08-06T06:37:41;5.38;;;2.90;;
15689;SDS011;7945;48.816;11.506;2023-08-06T06:40:08;2.95;;;2.75;;
15689;SDS011;7945;48.816;11.506;2023-08-06T06:42:35;2.95;;;2.70;;
15689;SDS011;7945;48.816;11.506;2023-08-06T06:45:02;2.80;;;2.47;;
15689;SDS011;7945;48.816;11.506;2023-08-06T06:47:30;3.05;;;2.72;;
15689;SDS011;7945;48.816;11.506;2023-08-06T06:49:58;3.00;;;2.70;;
15689;SDS011;7945;48.816;11.506;2023-08-06T06:52:24;4.57;;;2.72;;
15689;SDS011;7945;48.816;11.506;2023-08-06T06:54:51;2.88;;;2.67;;
15689;SDS011;7945;48.816;11.506;2023-08-06T06:57:18;3.15;;;2.80;;
15689;SDS011;7945;48.816;11.506;2023-08-06T06:59:45;2.72;;;2.53;;
15689;SDS011;7945;48.816;11.506;2023-08-06T07:02:11;4.22;;;2.80;;
15689;SDS011;7945;48.816;11.506;2023-08-06T07:04:38;3.72;;;2.75;;
15689;SDS011;7945;48.816;11.506;2023-08-06T07:07:06;3.05;;;2.78;;
15689;SDS011;7945;48.816;11.506;2023-08-06T07:09:33;3.15;;;2.63;;
15689;SDS011;7945;48.816;11.506;2023-08-06T07:12:00;3.55;;;2.58;;
15689;SDS011;7945;48.816;11.506;2023-08-06T07:14:27;2.58;;;2.30;;
15689;SDS011;7945;48.816;11.506;2023-08-06T07:16:55;2.90;;;2.22;;
15689;SDS011;7945;48.816;11.506;2023-08-06T07:19:21;3.83;;;2.20;;
15689;SDS011;7945;48.816;11.506;2023-08-06T07:21:49;4.00;;;2.42;;
15689;SDS011;7945;48.816;11.506;2023-08-06T07:24:17;2.25;;;2.05;;
15689;SDS011;7945;48.816;11.506;2023-08-06T07:26:44;2.30;;;2.10;;
15689;SDS011;7945;48.816;11.506;2023-08-06T07:29:10;2.47;;;2.28;;
15689;SDS011;7945;48.816;11.506;2023-08-06T07:31:37;2.28;;;2.00;;
15689;SDS011;7945;48.816;11.506;2023-08-06T07:34:04;3.15;;;2.25;;
15689;SDS011;7945;48.816;11.506;2023-08-06T07:36:31;2.15;;;1.88;;
15689;SDS011;7945;48.816;11.506;2023-08-06T07:38:57;3.28;;;2.10;;
15689;SDS011;7945;48.816;11.506;2023-08-06T07:41:26;2.58;;;2.13;;
15689;SDS011;7945;48.816;11.506;2023-08-06T07:43:52;2.00;;;1.80;;
15689;SDS011;7945;48.816;11.506;2023-08-06T07:46:19;3.05;;;2.10;;
15689;SDS011;7945;48.816;11.506;2023-08-06T07:48:46;1.95;;;1.80;;
15689;SDS011;7945;48.816;11.506;2023-08-06T07:51:12;2.15;;;1.95;;
15689;SDS011;7945;48.816;11.506;2023-08-06T07:53:39;3.40;;;2.08;;
15689;SDS011;7945;48.816;11.506;2023-08-06T07:56:06;3.35;;;1.98;;
15689;SDS011;7945;48.816;11.506;2023-08-06T07:58:34;3.03;;;2.10;;
15689;SDS011;7945;48.816;11.506;2023-08-06T08:01:01;2.33;;;1.90;;
15689;SDS011;7945;48.816;11.506;2023-08-06T08:03:27;2.33;;;2.10;;
15689;SDS011;7945;48.816;11.506;2023-08-06T08:05:55;1.88;;;1.67;;
15689;SDS011;7945;48.816;11.506;2023-08-06T08:08:23;3.15;;;1.85;;
15689;SDS011;7945;48.816;11.506;2023-08-06T08:10:50;2.95;;;2.08;;
15689;SDS011;7945;48.816;11.506;2023-08-06T08:13:17;2.08;;;1.80;;
15689;SDS011;7945;48.816;11.506;2023-08-06T08:15:45;1.90;;;1.70;;
15689;SDS011;7945;48.816;11.506;2023-08-06T08:18:12;1.30;;;1.20;;
15689;SDS011;7945;48.816;11.506;2023-08-06T08:20:38;1.52;;;1.42;;
15689;SDS011;7945;48.816;11.506;2023-08-06T08:23:05;1.52;;;1.40;;
15689;SDS011;7945;48.816;11.506;2023-08-06T08:25:32;11.25;;;2.42;;
15689;SDS011;7945;48.816;11.506;2023-08-06T08:27:59;2.75;;;1.80;;
15689;SDS011;7945;48.816;11.506;2023-08-06T08:30:25;3.30;;;1.30;;
15689;SDS011;7945;48.816;11.506;2023-08-06T08:32:54;1.42;;;1.30;;
15689;SDS011;7945;48.816;11.506;2023-08-06T08:35:20;1.63;;;1.40;;
15689;SDS011;7945;48.816;11.506;2023-08-06T08:37:47;2.38;;;1.52;;
15689;SDS011;7945;48.816;11.506;2023-08-06T08:40:14;2.72;;;1.50;;
15689;SDS011;7945;48.816;11.506;2023-08-06T08:42:41;1.30;;;1.20;;
15689;SDS011;7945;48.816;11.506;2023-08-06T08:45:11;2.03;;;1.85;;
15689;SDS011;7945;48.816;11.506;2023-08-06T08:47:39;2.03;;;1.50;;
15689;SDS011;7945;48.816;11.506;2023-08-06T08:50:09;1.60;;;1.50;;
15689;SDS011;7945;48.816;11.506;2023-08-06T08:52:38;1.98;;;1.45;;
15689;SDS011;7945;48.816;11.506;2023-08-06T08:55:05;1.83;;;1.40;;
15689;SDS011;7945;48.816;11.506;2023-08-06T08:57:34;2.15;;;1.73;;
15689;SDS011;7945;48.816;11.506;2023-08-06T09:00:00;1.35;;;1.25;;
15689;SDS011;7945;48.816;11.506;2023-08-06T09:02:28;1.40;;;1.30;;
15689;SDS011;7945;48.816;11.506;2023-08-06T09:04:55;1.33;;;1.23;;
15689;SDS011;7945;48.816;11.506;2023-08-06T09:07:26;1.50;;;1.40;;
15689;SDS011;7945;48.816;11.506;2023-08-06T09:09:53;1.45;;;1.33;;
15689;SDS011;7945;48.816;11.506;2023-08-06T09:12:21;1.23;;;1.13;;
15689;SDS011;7945;48.816;11.506;2023-08-06T09:14:48;2.10;;;1.60;;
15689;SDS011;7945;48.816;11.506;2023-08-06T09:17:15;1.50;;;1.40;;
15689;SDS011;7945;48.816;11.506;2023-08-06T09:19:44;2.15;;;1.30;;
15689;SDS011;7945;48.816;11.506;2023-08-06T09:22:13;1.42;;;1.33;;
15689;SDS011;7945;48.816;11.506;2023-08-06T09:24:42;1.38;;;1.27;;
15689;SDS011;7945;48.816;11.506;2023-08-06T09:27:11;1.35;;;1.25;;
15689;SDS011;7945;48.816;11.506;2023-08-06T09:29:42;1.55;;;1.27;;
15689;SDS011;7945;48.816;11.506;2023-08-06T09:32:10;1.23;;;1.10;;
15689;SDS011;7945;48.816;11.506;2023-08-06T09:34:38;1.95;;;1.10;;
15689;SDS011;7945;48.816;11.506;2023-08-06T09:37:05;1.42;;;1.25;;
15689;SDS011;7945;48.816;11.506;2023-08-06T09:39:34;2.17;;;1.30;;
15689;SDS011;7945;48.816;11.506;2023-08-06T09:42:02;1.30;;;1.10;;
15689;SDS011;7945;48.816;11.506;2023-08-06T09:44:31;0.85;;;0.85;;
15689;SDS011;7945;48.816;11.506;2023-08-06T09:46:58;0.80;;;0.80;;
15689;SDS011;7945;48.816;11.506;2023-08-06T09:49:26;0.82;;;0.82;;
15689;SDS011;7945;48.816;11.506;2023-08-06T09:51:54;0.82;;;0.80;;
15689;SDS011;7945;48.816;11.506;2023-08-06T09:54:23;0.90;;;0.80;;
15689;SDS011;7945;48.816;11.506;2023-08-06T09:56:51;1.05;;;0.90;;
15689;SDS011;7945;48.816;11.506;2023-08-06T09:59:20;0.82;;;0.82;;
15689;SDS011;7945;48.816;11.506;2023-08-06T10:01:47;1.70;;;1.10;;
15689;SDS011;7945;48.816;11.506;2023-08-06T10:04:14;1.75;;;0.98;;
15689;SDS011;7945;48.816;11.506;2023-08-06T10:06:42;2.67;;;0.93;;
15689;SDS011;7945;48.816;11.506;2023-08-06T10:09:13;0.80;;;0.80;;
15689;SDS011;7945;48.816;11.506;2023-08-06T10:11:40;1.33;;;0.85;;
15689;SDS011;7945;48.816;11.506;2023-08-06T10:14:08;0.80;;;0.80;;
15689;SDS011;7945;48.816;11.506;2023-08-06T10:16:40;1.23;;;0.95;;
15689;SDS011;7945;48.816;11.506;2023-08-06T10:19:09;0.90;;;0.90;;
15689;SDS011;7945;48.816;11.506;2023-08-06T10:21:37;0.75;;;0.70;;
15689;SDS011;7945;48.816;11.506;2023-08-06T10:24:06;0.63;;;0.63;;
15689;SDS011;7945;48.816;11.506;2023-08-06T10:26:34;1.52;;;0.80;;
15689;SDS011;7945;48.816;11.506;2023-08-06T10:29:01;1.13;;;0.80;;
15689;SDS011;7945;48.816;11.506;2023-08-06T10:31:58;0.80;;;0.80;;
15689;SDS011;7945;48.816;11.506;2023-08-06T10:34:32;1.30;;;0.68;;
15689;SDS011;7945;48.816;11.506;2023-08-06T10:37:34;0.88;;;0.70;;
15689;SDS011;7945;48.816;11.506;2023-08-06T10:40:02;0.63;;;0.60;;
15689;SDS011;7945;48.816;11.506;2023-08-06T10:42:32;0.57;;;0.52;;
15689;SDS011;7945;48.816;11.506;2023-08-06T10:45:11;0.90;;;0.50;;
15689;SDS011;7945;48.816;11.506;2023-08-06T10:47:41;0.50;;;0.50;;
15689;SDS011;7945;48.816;11.506;2023-08-06T10:52:37;0.60;;;0.60;;
15689;SDS011;7945;48.816;11.506;2023-08-06T10:55:04;0.70;;;0.70;;
15689;SDS011;7945;48.816;11.506;2023-08-06T10:57:32;1.08;;;0.70;;
15689;SDS011;7945;48.816;11.506;2023-08-06T10:59:58;0.60;;;0.60;;
15689;SDS011;7945;48.816;11.506;2023-08-06T11:02:25;0.63;;;0.57;;
15689;SDS011;7945;48.816;11.506;2023-08-06T11:04:53;0.65;;;0.60;;
15689;SDS011;7945;48.816;11.506;2023-08-06T11:07:20;0.60;;;0.60;;
15689;SDS011;7945;48.816;11.506;2023-08-06T11:09:49;0.60;;;0.60;;
15689;SDS011;7945;48.816;11.506;2023-08-06T11:12:18;1.92;;;0.60;;
15689;SDS011;7945;48.816;11.506;2023-08-06T11:14:49;0.50;;;0.50;;
15689;SDS011;7945;48.816;11.506;2023-08-06T11:17:16;0.68;;;0.68;;
15689;SDS011;7945;48.816;11.506;2023-08-06T11:19:43;0.50;;;0.50;;
15689;SDS011;7945;48.816;11.506;2023-08-06T11:22:11;0.50;;;0.50;;
15689;SDS011;7945;48.816;11.506;2023-08-06T11:24:38;0.50;;;0.50;;
15689;SDS011;7945;48.816;11.506;2023-08-06T11:27:10;0.68;;;0.60;;
15689;SDS011;7945;48.816;11.506;2023-08-06T11:29:38;0.65;;;0.65;;
15689;SDS011;7945;48.816;11.506;2023-08-06T11:32:05;0.85;;;0.65;;
15689;SDS011;7945;48.816;11.506;2023-08-06T11:34:32;0.57;;;0.57;;
15689;SDS011;7945;48.816;11.506;2023-08-06T11:36:59;0.55;;;0.55;;
15689;SDS011;7945;48.816;11.506;2023-08-06T11:39:27;0.50;;;0.50;;
15689;SDS011;7945;48.816;11.506;2023-08-06T11:41:53;2.42;;;1.02;;
15689;SDS011;7945;48.816;11.506;2023-08-06T11:44:21;0.73;;;0.73;;
15689;SDS011;7945;48.816;11.506;2023-08-06T11:46:50;0.60;;;0.60;;
15689;SDS011;7945;48.816;11.506;2023-08-06T11:49:18;0.90;;;0.70;;
15689;SDS011;7945;48.816;11.506;2023-08-06T11:51:46;0.73;;;0.70;;
15689;SDS011;7945;48.816;11.506;2023-08-06T11:54:14;0.70;;;0.70;;
15689;SDS011;7945;48.816;11.506;2023-08-06T11:56:42;0.80;;;0.70;;
15689;SDS011;7945;48.816;11.506;2023-08-06T11:59:08;0.80;;;0.80;;
15689;SDS011;7945;48.816;11.506;2023-08-06T12:01:35;0.70;;;0.70;;
15689;SDS011;7945;48.816;11.506;2023-08-06T12:04:04;0.60;;;0.60;;
15689;SDS011;7945;48.816;11.506;2023-08-06T12:06:31;2.38;;;0.80;;
15689;SDS011;7945;48.816;11.506;2023-08-06T12:09:08;2.20;;;0.70;;
15689;SDS011;7945;48.816;11.506;2023-08-06T12:11:35;0.70;;;0.70;;
15689;SDS011;7945;48.816;11.506;2023-08-06T12:14:03;0.60;;;0.60;;
15689;SDS011;7945;48.816;11.506;2023-08-06T12:16:30;0.60;;;0.60;;
15689;SDS011;7945;48.816;11.506;2023-08-06T12:18:56;0.70;;;0.70;;
15689;SDS011;7945;48.816;11.506;2023-08-06T12:21:23;0.77;;;0.57;;
15689;SDS011;7945;48.816;11.506;2023-08-06T12:23:50;0.57;;;0.57;;
15689;SDS011;7945;48.816;11.506;2023-08-06T12:26:17;1.48;;;0.65;;
15689;SDS011;7945;48.816;11.506;2023-08-06T12:28:43;0.52;;;0.52;;
15689;SDS011;7945;48.816;11.506;2023-08-06T12:31:11;0.60;;;0.50;;
15689;SDS011;7945;48.816;11.506;2023-08-06T12:33:38;0.60;;;0.60;;
15689;SDS011;7945;48.816;11.506;2023-08-06T12:36:05;0.73;;;0.60;;
15689;SDS011;7945;48.816;11.506;2023-08-06T12:38:32;0.50;;;0.50;;
15689;SDS011;7945;48.816;11.506;2023-08-06T12:40:58;0.68;;;0.68;;
15689;SDS011;7945;48.816;11.506;2023-08-06T12:43:25;1.00;;;0.60;;
15689;SDS011;7945;48.816;11.506;2023-08-06T12:45:52;0.68;;;0.68;;
15689;SDS011;7945;48.816;11.506;2023-08-06T12:48:20;2.55;;;0.90;;
15689;SDS011;7945;48.816;11.506;2023-08-06T12:50:47;0.60;;;0.60;;
15689;SDS011;7945;48.816;11.506;2023-08-06T12:53:14;0.70;;;0.70;;
15689;SDS011;7945;48.816;11.506;2023-08-06T12:55:41;0.50;;;0.50;;
15689;SDS011;7945;48.816;11.506;2023-08-06T12:58:08;0.68;;;0.68;;
15689;SDS011;7945;48.816;11.506;2023-08-06T13:00:35;0.70;;;0.70;;
15689;SDS011;7945;48.816;11.506;2023-08-06T13:03:02;0.50;;;0.50;;
15689;SDS011;7945;48.816;11.506;2023-08-06T13:05:30;0.60;;;0.60;;
15689;SDS011;7945;48.816;11.506;2023-08-06T13:07:57;0.60;;;0.60;;
15689;SDS011;7945;48.816;11.506;2023-08-06T13:10:24;0.68;;;0.68;;
15689;SDS011;7945;48.816;11.506;2023-08-06T13:12:52;0.77;;;0.77;;
15689;SDS011;7945;48.816;11.506;2023-08-06T13:15:19;0.68;;;0.68;;
15689;SDS011;7945;48.816;11.506;2023-08-06T13:17:47;0.75;;;0.75;;
15689;SDS011;7945;48.816;11.506;2023-08-06T13:20:13;0.60;;;0.60;;
15689;SDS011;7945;48.816;11.506;2023-08-06T13:22:42;0.52;;;0.52;;
15689;SDS011;7945;48.816;11.506;2023-08-06T13:25:11;0.95;;;0.50;;
15689;SDS011;7945;48.816;11.506;2023-08-06T13:27:39;0.65;;;0.60;;
15689;SDS011;7945;48.816;11.506;2023-08-06T13:30:07;0.60;;;0.60;;
15689;SDS011;7945;48.816;11.506;2023-08-06T13:32:35;0.60;;;0.60;;
15689;SDS011;7945;48.816;11.506;2023-08-06T13:35:02;0.98;;;0.63;;
15689;SDS011;7945;48.816;11.506;2023-08-06T13:37:29;0.50;;;0.50;;
15689;SDS011;7945;48.816;11.506;2023-08-06T13:39:57;0.60;;;0.60;;
15689;SDS011;7945;48.816;11.506;2023-08-06T13:42:24;1.88;;;0.98;;
15689;SDS011;7945;48.816;11.506;2023-08-06T13:44:51;1.73;;;1.00;;
15689;SDS011;7945;48.816;11.506;2023-08-06T13:47:17;1.45;;;0.75;;
15689;SDS011;7945;48.816;11.506;2023-08-06T13:49:44;0.60;;;0.60;;
15689;SDS011;7945;48.816;11.506;2023-08-06T13:52:11;0.70;;;0.70;;
15689;SDS011;7945;48.816;11.506;2023-08-06T13:54:38;0.70;;;0.70;;
15689;SDS011;7945;48.816;11.506;2023-08-06T13:57:06;0.75;;;0.70;;
15689;SDS011;7945;48.816;11.506;2023-08-06T13:59:32;0.70;;;0.70;;
15689;SDS011;7945;48.816;11.506;2023-08-06T14:01:59;1.67;;;0.70;;
15689;SDS011;7945;48.816;11.506;2023-08-06T14:04:26;1.58;;;0.70;;
15689;SDS011;7945;48.816;11.506;2023-08-06T14:06:53;0.60;;;0.60;;
15689;SDS011;7945;48.816;11.506;2023-08-06T14:09:19;1.65;;;0.70;;
15689;SDS011;7945;48.816;11.506;2023-08-06T14:11:46;1.15;;;0.80;;
15689;SDS011;7945;48.816;11.506;2023-08-06T14:14:14;0.70;;;0.70;;
15689;SDS011;7945;48.816;11.506;2023-08-06T14:16:41;0.70;;;0.70;;
15689;SDS011;7945;48.816;11.506;2023-08-06T14:19:08;0.70;;;0.70;;
15689;SDS011;7945;48.816;11.506;2023-08-06T14:21:34;0.85;;;0.60;;
15689;SDS011;7945;48.816;11.506;2023-08-06T14:24:01;0.70;;;0.70;;
15689;SDS011;7945;48.816;11.506;2023-08-06T14:26:28;0.80;;;0.80;;
15689;SDS011;7945;48.816;11.506;2023-08-06T14:28:55;0.90;;;0.90;;
15689;SDS011;7945;48.816;11.506;2023-08-06T14:31:23;0.80;;;0.80;;
15689;SDS011;7945;48.816;11.506;2023-08-06T14:33:50;0.80;;;0.80;;
15689;SDS011;7945;48.816;11.506;2023-08-06T14:36:16;0.70;;;0.70;;
15689;SDS011;7945;48.816;11.506;2023-08-06T14:38:43;1.08;;;0.80;;
15689;SDS011;7945;48.816;11.506;2023-08-06T14:41:10;0.88;;;0.88;;
15689;SDS011;7945;48.816;11.506;2023-08-06T14:43:37;0.80;;;0.80;;
15689;SDS011;7945;48.816;11.506;2023-08-06T14:46:03;0.70;;;0.70;;
15689;SDS011;7945;48.816;11.506;2023-08-06T14:48:31;0.70;;;0.70;;
15689;SDS011;7945;48.816;11.506;2023-08-06T14:50:58;0.80;;;0.80;;
15689;SDS011;7945;48.816;11.506;2023-08-06T14:53:26;0.93;;;0.88;;
15689;SDS011;7945;48.816;11.506;2023-08-06T14:55:53;0.85;;;0.85;;
15689;SDS011;7945;48.816;11.506;2023-08-06T14:58:20;1.65;;;1.00;;